createdAt,value
2018-07-09T00:00:47.387Z,17.8
2018-07-09T00:01:48.758Z,17.8
2018-07-09T00:02:50.347Z,17.8
2018-07-09T00:03:51.707Z,17.9
2018-07-09T00:04:55.691Z,17.9
2018-07-09T00:05:57.049Z,17.9
2018-07-09T00:07:01.495Z,17.8
2018-07-09T00:08:02.824Z,17.8
2018-07-09T00:09:04.303Z,17.8
2018-07-09T00:10:08.682Z,17.8
2018-07-09T00:11:10.005Z,17.8
2018-07-09T00:12:11.302Z,17.7
2018-07-09T00:13:15.351Z,17.7
2018-07-09T00:14:16.893Z,17.6
2018-07-09T00:15:20.634Z,17.7
2018-07-09T00:16:26.924Z,17.7
2018-07-09T00:17:28.229Z,17.7
2018-07-09T00:18:35.382Z,17.6
2018-07-09T00:19:36.649Z,17.7
2018-07-09T00:20:37.926Z,17.7
2018-07-09T00:21:41.443Z,17.7
2018-07-09T00:22:48.465Z,17.5
2018-07-09T00:23:49.804Z,17.6
2018-07-09T00:24:53.309Z,17.6
2018-07-09T00:25:59.313Z,17.5
2018-07-09T00:27:01.030Z,17.5
2018-07-09T00:28:02.338Z,17.5
2018-07-09T00:29:04.666Z,17.5
2018-07-09T00:30:07.316Z,17.5
2018-07-09T00:31:11.671Z,17.5
2018-07-09T00:32:12.973Z,17.5
2018-07-09T00:33:16.703Z,17.5
2018-07-09T00:34:18.511Z,17.5
2018-07-09T00:35:19.768Z,17.5
2018-07-09T00:36:21.509Z,17.4
2018-07-09T00:37:22.911Z,17.4
2018-07-09T00:38:24.186Z,17.4
2018-07-09T00:39:25.475Z,17.4
2018-07-09T00:40:26.842Z,17.4
2018-07-09T00:41:28.137Z,17.4
2018-07-09T00:42:29.730Z,17.3
2018-07-09T00:43:33.437Z,17.5
2018-07-09T00:44:34.711Z,17.5
2018-07-09T00:45:36.355Z,17.4
2018-07-09T00:46:37.674Z,17.3
2018-07-09T00:47:38.971Z,17.4
2018-07-09T00:48:40.319Z,17.3
2018-07-09T00:49:41.612Z,17.4
2018-07-09T00:50:42.980Z,17.4
2018-07-09T00:51:44.227Z,17.3
2018-07-09T00:52:48.600Z,17.3
2018-07-09T00:53:49.904Z,17.3
2018-07-09T00:54:51.128Z,17.3
2018-07-09T00:55:52.703Z,17.2
2018-07-09T00:56:58.563Z,17.2
2018-07-09T00:58:02.205Z,17.2
2018-07-09T00:59:03.702Z,17.2
2018-07-09T01:00:05.022Z,17.2
2018-07-09T01:01:06.319Z,17.1
2018-07-09T01:02:07.619Z,17.1
2018-07-09T01:03:08.919Z,17.1
2018-07-09T01:04:10.226Z,17.1
2018-07-09T01:05:11.810Z,17
2018-07-09T01:06:15.427Z,17
2018-07-09T01:07:17.124Z,17
2018-07-09T01:08:21.338Z,17
2018-07-09T01:09:22.690Z,17
2018-07-09T01:10:25.011Z,17
2018-07-09T01:11:26.331Z,16.9
2018-07-09T01:12:27.819Z,16.9
2018-07-09T01:13:29.546Z,16.9
2018-07-09T01:14:30.822Z,16.9
2018-07-09T01:15:32.296Z,16.9
2018-07-09T01:16:33.549Z,16.9
2018-07-09T01:17:34.797Z,16.9
2018-07-09T01:18:38.756Z,16.9
2018-07-09T01:19:40.233Z,16.9
2018-07-09T01:20:41.805Z,16.8
2018-07-09T01:21:47.701Z,16.8
2018-07-09T01:22:48.927Z,16.7
2018-07-09T01:23:51.303Z,16.6
2018-07-09T01:24:54.368Z,16.6
2018-07-09T01:25:55.856Z,16.6
2018-07-09T01:26:57.104Z,16.6
2018-07-09T01:27:58.382Z,16.6
2018-07-09T01:29:00.905Z,16.6
2018-07-09T01:30:04.379Z,16.6
2018-07-09T01:31:05.722Z,16.5
2018-07-09T01:32:07.001Z,16.5
2018-07-09T01:33:08.304Z,16.4
2018-07-09T01:34:12.407Z,16.4
2018-07-09T01:35:13.724Z,16.5
2018-07-09T01:36:15.234Z,16.4
2018-07-09T01:37:17.197Z,16.4
2018-07-09T01:38:18.543Z,16.4
2018-07-09T01:39:19.869Z,16.4
2018-07-09T01:40:21.224Z,16.4
2018-07-09T01:41:22.476Z,16.3
2018-07-09T01:42:23.790Z,16.3
2018-07-09T01:43:25.043Z,16.3
2018-07-09T01:44:28.222Z,16.2
2018-07-09T01:45:29.628Z,16.1
2018-07-09T01:46:31.099Z,16.1
2018-07-09T01:47:32.436Z,16.1
2018-07-09T01:48:33.979Z,16.1
2018-07-09T01:49:35.350Z,16
2018-07-09T01:50:36.650Z,16
2018-07-09T01:51:40.251Z,15.9
2018-07-09T01:52:41.556Z,16
2018-07-09T01:53:42.882Z,15.8
2018-07-09T01:54:44.242Z,15.9
2018-07-09T01:55:45.472Z,15.8
2018-07-09T01:56:46.714Z,15.8
2018-07-09T01:57:47.974Z,15.9
2018-07-09T01:58:51.551Z,15.9
2018-07-09T01:59:53.239Z,15.9
2018-07-09T02:01:03.252Z,15.8
2018-07-09T02:02:07.641Z,15.8
2018-07-09T02:03:08.903Z,15.8
2018-07-09T02:04:10.173Z,15.8
2018-07-09T02:05:11.446Z,15.7
2018-07-09T02:06:12.754Z,15.7
2018-07-09T02:07:14.122Z,15.7
2018-07-09T02:08:15.568Z,15.6
2018-07-09T02:09:17.105Z,15.6
2018-07-09T02:10:20.327Z,15.6
2018-07-09T02:11:21.612Z,15.6
2018-07-09T02:12:26.705Z,15.4
2018-07-09T02:13:34.142Z,15.5
2018-07-09T02:14:35.757Z,15.5
2018-07-09T02:15:37.182Z,15.4
2018-07-09T02:16:38.497Z,15.5
2018-07-09T02:17:40.066Z,15.5
2018-07-09T02:18:41.355Z,15.5
2018-07-09T02:19:43.729Z,15.5
2018-07-09T02:20:47.214Z,15.5
2018-07-09T02:21:51.518Z,15.3
2018-07-09T02:22:52.775Z,15.4
2018-07-09T02:23:56.207Z,15.3
2018-07-09T02:25:00.525Z,15.2
2018-07-09T02:26:01.858Z,15.3
2018-07-09T02:27:03.677Z,15.3
2018-07-09T02:28:05.810Z,15.2
2018-07-09T02:29:08.246Z,15.3
2018-07-09T02:30:09.704Z,15.2
2018-07-09T02:31:17.083Z,15.1
2018-07-09T02:32:18.646Z,15.2
2018-07-09T02:33:22.711Z,15.1
2018-07-09T02:34:24.246Z,15.1
2018-07-09T02:35:25.508Z,15.1
2018-07-09T02:36:26.801Z,15.1
2018-07-09T02:37:31.391Z,15
2018-07-09T02:38:32.846Z,15
2018-07-09T02:39:34.324Z,15.1
2018-07-09T02:40:35.842Z,15
2018-07-09T02:41:37.358Z,15
2018-07-09T02:42:38.680Z,15
2018-07-09T02:43:40.169Z,15.1
2018-07-09T02:44:41.715Z,15
2018-07-09T02:45:43.023Z,15
2018-07-09T02:46:44.349Z,15
2018-07-09T02:47:45.639Z,15
2018-07-09T02:48:46.975Z,14.9
2018-07-09T02:49:48.283Z,14.8
2018-07-09T02:50:49.547Z,14.7
2018-07-09T02:51:50.868Z,14.8
2018-07-09T02:52:52.908Z,14.9
2018-07-09T02:53:54.237Z,14.9
2018-07-09T02:54:55.643Z,14.9
2018-07-09T02:55:57.168Z,14.9
2018-07-09T02:56:58.471Z,14.8
2018-07-09T02:57:59.775Z,14.8
2018-07-09T02:59:01.317Z,14.8
2018-07-09T03:00:07.742Z,14.8
2018-07-09T03:01:09.184Z,14.8
2018-07-09T03:02:10.386Z,14.7
2018-07-09T03:03:11.743Z,14.6
2018-07-09T03:04:15.801Z,14.8
2018-07-09T03:05:17.533Z,14.7
2018-07-09T03:06:23.472Z,14.7
2018-07-09T03:07:25.375Z,14.7
2018-07-09T03:08:29.763Z,14.7
2018-07-09T03:09:31.044Z,14.6
2018-07-09T03:10:34.396Z,14.7
2018-07-09T03:11:35.701Z,14.6
2018-07-09T03:12:37.526Z,14.5
2018-07-09T03:13:38.820Z,14.6
2018-07-09T03:14:40.090Z,14.5
2018-07-09T03:15:41.356Z,14.6
2018-07-09T03:16:42.592Z,14.7
2018-07-09T03:17:44.350Z,14.6
2018-07-09T03:18:45.852Z,14.5
2018-07-09T03:19:50.297Z,14.6
2018-07-09T03:20:51.539Z,14.5
2018-07-09T03:21:52.836Z,14.5
2018-07-09T03:22:57.700Z,14.5
2018-07-09T03:23:58.995Z,14.5
2018-07-09T03:25:00.265Z,14.5
2018-07-09T03:26:01.564Z,14.5
2018-07-09T03:27:02.868Z,14.4
2018-07-09T03:28:07.373Z,14.4
2018-07-09T03:29:09.236Z,14.4
2018-07-09T03:30:10.481Z,14.4
2018-07-09T03:31:13.886Z,14.3
2018-07-09T03:32:15.123Z,14.4
2018-07-09T03:33:16.426Z,14.4
2018-07-09T03:34:17.703Z,14.4
2018-07-09T03:35:20.337Z,14.4
2018-07-09T03:36:24.383Z,14.4
2018-07-09T03:37:25.703Z,14.4
2018-07-09T03:38:29.589Z,14.4
2018-07-09T03:39:33.171Z,14.4
2018-07-09T03:40:34.514Z,14.4
2018-07-09T03:41:35.788Z,14.5
2018-07-09T03:42:37.094Z,14.4
2018-07-09T03:43:38.406Z,14.5
2018-07-09T03:44:40.099Z,14.6
2018-07-09T03:45:41.416Z,14.5
2018-07-09T03:46:47.583Z,14.6
2018-07-09T03:47:48.921Z,14.7
2018-07-09T03:48:50.247Z,14.7
2018-07-09T03:49:51.579Z,14.6
2018-07-09T03:50:54.690Z,14.8
2018-07-09T03:51:56.022Z,14.8
2018-07-09T03:52:57.363Z,14.9
2018-07-09T03:54:01.610Z,15
2018-07-09T03:55:02.855Z,15.1
2018-07-09T03:56:04.231Z,15.1
2018-07-09T03:57:05.675Z,15.1
2018-07-09T03:58:07.245Z,15.2
2018-07-09T03:59:09.598Z,15.2
2018-07-09T04:00:15.986Z,15.2
2018-07-09T04:01:17.271Z,15.3
2018-07-09T04:02:21.803Z,15.2
2018-07-09T04:03:23.203Z,15.2
2018-07-09T04:04:24.505Z,15.1
2018-07-09T04:05:25.783Z,15.2
2018-07-09T04:06:27.104Z,15.3
2018-07-09T04:07:28.387Z,15.3
2018-07-09T04:08:29.647Z,15.2
2018-07-09T04:09:30.985Z,15.3
2018-07-09T04:10:35.498Z,15.4
2018-07-09T04:11:36.819Z,15.4
2018-07-09T04:12:48.075Z,15.4
2018-07-09T04:13:49.410Z,15.4
2018-07-09T04:14:50.779Z,15.4
2018-07-09T04:15:52.034Z,15.5
2018-07-09T04:16:53.297Z,15.4
2018-07-09T04:17:55.981Z,15.6
2018-07-09T04:18:57.235Z,15.6
2018-07-09T04:20:00.012Z,15.7
2018-07-09T04:21:01.276Z,15.7
2018-07-09T04:22:05.325Z,15.9
2018-07-09T04:23:07.428Z,16
2018-07-09T04:24:08.756Z,16.2
2018-07-09T04:25:10.062Z,16.6
2018-07-09T04:26:13.863Z,16.9
2018-07-09T04:27:15.270Z,17.2
2018-07-09T04:28:17.712Z,17.3
2018-07-09T04:29:19.245Z,17.6
2018-07-09T04:30:20.632Z,17.9
2018-07-09T04:31:21.911Z,18.1
2018-07-09T04:32:24.215Z,18.5
2018-07-09T04:33:25.519Z,18.7
2018-07-09T04:34:26.803Z,19
2018-07-09T04:35:28.135Z,19.4
2018-07-09T04:36:29.660Z,19.6
2018-07-09T04:37:33.147Z,19.9
2018-07-09T04:38:35.717Z,20
2018-07-09T04:39:37.039Z,20
2018-07-09T04:40:38.358Z,20.3
2018-07-09T04:41:41.015Z,20.5
2018-07-09T04:42:44.489Z,20.5
2018-07-09T04:43:45.768Z,20.7
2018-07-09T04:44:49.797Z,20.8
2018-07-09T04:45:51.071Z,20.9
2018-07-09T04:46:52.378Z,20.9
2018-07-09T04:47:53.657Z,21.1
2018-07-09T04:48:54.923Z,21.3
2018-07-09T04:49:56.244Z,21.5
2018-07-09T04:50:57.589Z,21.6
2018-07-09T04:52:00.260Z,21.6
2018-07-09T04:53:01.597Z,21.7
2018-07-09T04:54:02.981Z,21.9
2018-07-09T04:55:07.550Z,22
2018-07-09T04:56:08.812Z,22.1
2018-07-09T04:57:10.285Z,22.2
2018-07-09T04:58:15.970Z,22.5
2018-07-09T04:59:17.291Z,22.7
2018-07-09T05:00:18.755Z,23
2018-07-09T05:01:23.072Z,23
2018-07-09T05:02:24.323Z,23.3
2018-07-09T05:03:25.628Z,23.3
2018-07-09T05:04:29.388Z,23.5
2018-07-09T05:05:33.808Z,23.8
2018-07-09T05:06:35.663Z,24
2018-07-09T05:07:41.125Z,24.4
2018-07-09T05:08:42.435Z,24.5
2018-07-09T05:09:43.690Z,24.5
2018-07-09T05:10:44.992Z,23.7
2018-07-09T05:11:46.263Z,23.9
2018-07-09T05:12:47.596Z,24.5
2018-07-09T05:13:48.878Z,24.6
2018-07-09T05:14:50.159Z,24.1
2018-07-09T05:15:51.468Z,24.5
2018-07-09T05:16:52.755Z,25.1
2018-07-09T05:17:57.912Z,25.1
2018-07-09T05:19:01.648Z,25.1
2018-07-09T05:20:03.642Z,25.5
2018-07-09T05:21:05.973Z,25.3
2018-07-09T05:22:07.337Z,25.5
2018-07-09T05:23:14.294Z,25.7
2018-07-09T05:24:18.487Z,25.5
2018-07-09T05:25:19.783Z,25.7
2018-07-09T05:26:21.018Z,25.4
2018-07-09T05:27:22.670Z,25.8
2018-07-09T05:28:23.935Z,25.5
2018-07-09T05:29:25.296Z,25.6
2018-07-09T05:30:26.607Z,25.4
2018-07-09T05:31:27.987Z,25.6
2018-07-09T05:32:29.559Z,25.8
2018-07-09T05:33:31.269Z,25.8
2018-07-09T05:34:32.515Z,25.9
2018-07-09T05:35:33.801Z,26.3
2018-07-09T05:36:35.040Z,26.2
2018-07-09T05:37:36.783Z,26
2018-07-09T05:38:39.750Z,26.2
2018-07-09T05:39:43.223Z,26.3
2018-07-09T05:40:44.471Z,26.3
2018-07-09T05:41:46.112Z,26.2
2018-07-09T05:42:47.498Z,26.2
2018-07-09T05:43:53.391Z,26.2
2018-07-09T05:44:54.647Z,26.5
2018-07-09T05:45:57.113Z,26.7
2018-07-09T05:46:58.402Z,26.6
2018-07-09T05:47:59.696Z,26.5
2018-07-09T05:49:01.161Z,26.6
2018-07-09T05:50:05.866Z,26.9
2018-07-09T05:51:07.459Z,26.3
2018-07-09T05:52:10.796Z,26.6
2018-07-09T05:53:12.755Z,26.5
2018-07-09T05:54:15.636Z,27
2018-07-09T05:55:18.575Z,26.8
2018-07-09T05:56:20.177Z,26.4
2018-07-09T05:57:21.391Z,26.6
2018-07-09T05:58:22.731Z,26.6
2018-07-09T05:59:23.996Z,26.8
2018-07-09T06:00:26.047Z,27
2018-07-09T06:01:27.445Z,26.5
2018-07-09T06:02:28.729Z,26.9
2018-07-09T06:03:30.050Z,27
2018-07-09T06:04:31.283Z,27
2018-07-09T06:05:33.890Z,27.2
2018-07-09T06:06:37.786Z,26.8
2018-07-09T06:07:42.000Z,26.2
2018-07-09T06:08:43.337Z,26.6
2018-07-09T06:09:44.604Z,26.9
2018-07-09T06:10:47.095Z,26.9
2018-07-09T06:11:53.391Z,26.9
2018-07-09T06:12:54.695Z,26.8
2018-07-09T06:13:55.971Z,27
2018-07-09T06:15:08.561Z,27.4
2018-07-09T06:16:09.825Z,27.4
2018-07-09T06:17:11.228Z,27.3
2018-07-09T06:18:12.507Z,27.5
2018-07-09T06:19:13.831Z,27.3
2018-07-09T06:20:15.249Z,27.5
2018-07-09T06:21:16.735Z,27.6
2018-07-09T06:22:18.308Z,27.1
2018-07-09T06:23:20.296Z,27.3
2018-07-09T06:24:21.589Z,27.2
2018-07-09T06:25:22.913Z,27.3
2018-07-09T06:26:30.306Z,27.1
2018-07-09T06:27:43.532Z,27.5
2018-07-09T06:28:47.923Z,28.4
2018-07-09T06:29:49.272Z,28.6
2018-07-09T06:30:50.659Z,28.5
2018-07-09T06:31:51.898Z,28.1
2018-07-09T06:32:53.216Z,28.1
2018-07-09T06:34:06.692Z,28.4
2018-07-09T06:35:08.060Z,28.6
2018-07-09T06:36:09.349Z,28.7
2018-07-09T06:37:10.648Z,28.6
2018-07-09T06:38:11.963Z,27.7
2018-07-09T06:39:14.352Z,27.9
2018-07-09T06:40:15.687Z,28.2
2018-07-09T06:41:18.291Z,28
2018-07-09T06:42:19.615Z,28.2
2018-07-09T06:43:20.906Z,29.2
2018-07-09T06:44:22.324Z,29.4
2018-07-09T06:45:26.838Z,28.8
2018-07-09T06:46:29.392Z,28.8
2018-07-09T06:47:31.358Z,28.7
2018-07-09T06:48:35.483Z,28.8
2018-07-09T06:49:36.971Z,29.6
2018-07-09T06:50:38.599Z,29.6
2018-07-09T06:51:39.859Z,29
2018-07-09T06:52:41.241Z,28.9
2018-07-09T06:53:42.638Z,29.1
2018-07-09T06:54:45.283Z,28.6
2018-07-09T06:55:46.913Z,29.2
2018-07-09T06:56:48.139Z,29
2018-07-09T06:57:52.076Z,28.5
2018-07-09T06:58:53.358Z,29.5
2018-07-09T06:59:54.849Z,29.9
2018-07-09T07:00:57.547Z,29.7
2018-07-09T07:01:58.864Z,29.8
2018-07-09T07:03:00.195Z,30
2018-07-09T07:04:01.834Z,29.5
2018-07-09T07:05:03.155Z,29.2
2018-07-09T07:06:07.413Z,29.2
2018-07-09T07:07:09.348Z,30.7
2018-07-09T07:08:12.766Z,30.6
2018-07-09T07:09:14.156Z,30.2
2018-07-09T07:10:15.309Z,29.8
2018-07-09T07:11:17.157Z,29.6
2018-07-09T07:12:27.423Z,29.4
2018-07-09T07:13:28.995Z,29.3
2018-07-09T07:14:33.704Z,29.6
2018-07-09T07:15:35.243Z,29.7
2018-07-09T07:16:36.531Z,29.7
2018-07-09T07:17:40.764Z,29.6
2018-07-09T07:18:42.116Z,30
2018-07-09T07:19:43.428Z,29.9
2018-07-09T07:20:47.556Z,29.9
2018-07-09T07:21:51.310Z,29.8
2018-07-09T07:22:54.665Z,30.5
2018-07-09T07:23:55.968Z,30.3
2018-07-09T07:24:59.446Z,29.9
2018-07-09T07:26:03.507Z,30.1
2018-07-09T07:27:11.832Z,29.8
2018-07-09T07:28:16.032Z,30.3
2018-07-09T07:29:17.621Z,30.1
2018-07-09T07:30:21.756Z,30.5
2018-07-09T07:31:29.699Z,30
2018-07-09T07:32:31.329Z,29.6
2018-07-09T07:33:32.818Z,29.6
2018-07-09T07:34:34.115Z,29.8
2018-07-09T07:35:35.704Z,30
2018-07-09T07:36:46.288Z,30
2018-07-09T07:37:49.273Z,29.8
2018-07-09T07:38:57.552Z,30
2018-07-09T07:40:00.873Z,31
2018-07-09T07:41:04.098Z,30.5
2018-07-09T07:42:05.655Z,30.3
2018-07-09T07:43:09.057Z,30.7
2018-07-09T07:44:10.399Z,30.8
2018-07-09T07:45:19.552Z,30.6
2018-07-09T07:46:26.284Z,31.1
2018-07-09T07:47:27.650Z,31.3
2018-07-09T07:48:29.242Z,30.9
2018-07-09T07:49:30.547Z,31.2
2018-07-09T07:50:36.131Z,31.5
2018-07-09T07:51:37.271Z,31.6
2018-07-09T07:52:41.622Z,31.7
2018-07-09T07:53:45.210Z,30.7
2018-07-09T07:54:50.189Z,30.6
2018-07-09T07:55:51.541Z,30.8
2018-07-09T07:56:53.240Z,30.9
2018-07-09T07:57:57.204Z,30.7
2018-07-09T07:59:01.580Z,31
2018-07-09T08:00:04.477Z,31.3
2018-07-09T08:01:13.048Z,30.8
2018-07-09T08:02:14.393Z,30.6
2018-07-09T08:03:15.760Z,30.8
2018-07-09T08:04:17.236Z,30.9
2018-07-09T08:05:18.796Z,31.4
2018-07-09T08:06:23.206Z,31.7
2018-07-09T08:07:24.678Z,31.6
2018-07-09T08:08:34.221Z,31.4
2018-07-09T08:09:35.511Z,30.7
2018-07-09T08:10:42.590Z,31
2018-07-09T08:11:49.128Z,31.1
2018-07-09T08:13:27.172Z,31
2018-07-09T08:14:04.827Z,30.7
2018-07-09T08:15:09.629Z,31
2018-07-09T08:16:17.829Z,30.6
2018-07-09T08:17:21.907Z,31.2
2018-07-09T08:18:26.418Z,31.4
2018-07-09T08:20:47.563Z,31.8
2018-07-09T08:21:49.045Z,31.7
2018-07-09T08:22:50.308Z,31.7
2018-07-09T08:23:51.571Z,31.5
2018-07-09T08:24:57.366Z,31.5
2018-07-09T08:27:27.952Z,31.5
2018-07-09T08:28:29.235Z,31.6
2018-07-09T08:29:30.503Z,31.6
2018-07-09T08:30:36.655Z,32
2018-07-09T08:31:38.307Z,31.4
2018-07-09T08:32:40.867Z,31.3
2018-07-09T08:33:53.760Z,31.4
2018-07-09T08:34:55.116Z,31.4
2018-07-09T08:35:56.434Z,32.2
2018-07-09T08:37:00.812Z,32.3
2018-07-09T08:38:02.466Z,31.7
2018-07-09T08:39:03.726Z,31.6
2018-07-09T08:40:10.039Z,31.7
2018-07-09T08:41:24.233Z,32.2
2018-07-09T08:42:25.575Z,31.6
2018-07-09T08:43:27.276Z,31.6
2018-07-09T08:44:31.435Z,31.4
2018-07-09T08:45:46.447Z,31.4
2018-07-09T08:46:50.355Z,31.5
2018-07-09T08:47:51.785Z,30.9
2018-07-09T08:48:55.080Z,30.9
2018-07-09T08:49:56.614Z,30.7
2018-07-09T08:50:57.955Z,30.8
2018-07-09T08:51:59.191Z,31.5
2018-07-09T08:53:00.748Z,31.5
2018-07-09T08:54:02.069Z,31.7
2018-07-09T08:55:08.990Z,32.1
2018-07-09T08:56:10.414Z,31.7
2018-07-09T08:57:14.592Z,31.7
2018-07-09T08:58:17.586Z,31.5
2018-07-09T08:59:21.302Z,31.3
2018-07-09T09:00:27.160Z,31.1
2018-07-09T09:01:35.788Z,31.4
2018-07-09T09:02:37.491Z,31.4
2018-07-09T09:03:39.707Z,31.2
2018-07-09T09:04:41.686Z,31.6
2018-07-09T09:05:43.508Z,31.6
2018-07-09T09:08:02.458Z,31.3
2018-07-09T09:09:04.095Z,32
2018-07-09T09:10:08.305Z,31.8
2018-07-09T09:11:27.323Z,31.4
2018-07-09T09:12:38.674Z,30.8
2018-07-09T09:13:40.197Z,30.9
2018-07-09T09:14:41.785Z,31
2018-07-09T09:15:43.624Z,31.2
2018-07-09T09:16:44.967Z,31.7
2018-07-09T09:17:49.990Z,31.5
2018-07-09T09:18:53.576Z,31.6
2018-07-09T09:19:55.889Z,31.6
2018-07-09T09:20:58.277Z,31.3
2018-07-09T09:22:06.075Z,31.3
2018-07-09T09:23:26.862Z,31
2018-07-09T09:24:37.712Z,30.9
2018-07-09T09:25:43.145Z,31
2018-07-09T09:26:52.436Z,31
2018-07-09T09:27:54.189Z,31.1
2018-07-09T09:28:55.668Z,31.6
2018-07-09T09:29:57.071Z,31.6
2018-07-09T09:30:58.997Z,31.5
2018-07-09T09:32:02.895Z,31.5
2018-07-09T09:33:04.179Z,31.2
2018-07-09T09:34:07.143Z,31.4
2018-07-09T09:35:11.509Z,31.7
2018-07-09T09:36:14.584Z,31.5
2018-07-09T09:37:18.440Z,31.1
2018-07-09T09:38:25.855Z,31.1
2018-07-09T09:39:28.601Z,30.6
2018-07-09T09:40:32.056Z,31
2018-07-09T09:41:33.823Z,30.9
2018-07-09T09:42:38.402Z,31
2018-07-09T09:43:44.774Z,31.2
2018-07-09T09:44:51.029Z,31.2
2018-07-09T09:46:01.239Z,31.1
2018-07-09T09:47:13.632Z,31.2
2018-07-09T09:48:15.100Z,31.1
2018-07-09T09:49:16.745Z,31.1
2018-07-09T09:50:19.197Z,31.4
2018-07-09T09:51:27.470Z,31.5
2018-07-09T09:52:29.036Z,31.5
2018-07-09T09:53:39.400Z,31.5
2018-07-09T09:54:41.157Z,31.3
2018-07-09T09:55:44.648Z,30.6
2018-07-09T09:56:55.469Z,30.9
2018-07-09T09:58:04.295Z,31.4
2018-07-09T09:59:05.611Z,30.8
2018-07-09T10:00:09.717Z,30.5
2018-07-09T10:01:31.292Z,30.7
2018-07-09T10:02:35.369Z,31
2018-07-09T10:03:40.167Z,31.1
2018-07-09T10:04:41.729Z,31.2
2018-07-09T10:05:45.852Z,30.9
2018-07-09T10:06:51.163Z,30.9
2018-07-09T10:07:54.117Z,30.8
2018-07-09T10:08:58.358Z,30.7
2018-07-09T10:09:59.674Z,30.7
2018-07-09T10:11:02.599Z,30.7
2018-07-09T10:12:09.005Z,30.9
2018-07-09T10:13:10.456Z,31.1
2018-07-09T10:14:11.799Z,31
2018-07-09T10:15:17.219Z,31
2018-07-09T10:16:24.486Z,30.3
2018-07-09T10:17:27.273Z,30.5
2018-07-09T10:18:28.581Z,30.7
2018-07-09T10:19:30.042Z,30.8
2018-07-09T10:20:31.373Z,30.7
2018-07-09T10:21:32.970Z,30.6
2018-07-09T10:22:36.333Z,30.8
2018-07-09T10:23:41.827Z,30.7
2018-07-09T10:24:50.347Z,30.7
2018-07-09T10:25:53.303Z,30.7
2018-07-09T10:26:54.662Z,30.5
2018-07-09T10:27:55.999Z,30.3
2018-07-09T10:28:59.129Z,30.4
2018-07-09T10:30:05.697Z,30.4
2018-07-09T10:31:13.851Z,30.7
2018-07-09T10:32:17.312Z,30.7
2018-07-09T10:33:21.728Z,30.8
2018-07-09T10:34:23.259Z,30.6
2018-07-09T10:35:25.082Z,30.6
2018-07-09T10:36:43.511Z,30.5
2018-07-09T10:37:48.757Z,30.4
2018-07-09T10:38:50.083Z,30.3
2018-07-09T10:39:52.602Z,30.3
2018-07-09T10:40:56.589Z,30.4
2018-07-09T10:42:03.969Z,30.6
2018-07-09T10:43:10.635Z,30.6
2018-07-09T10:44:17.404Z,30.6
2018-07-09T10:45:21.088Z,30.5
2018-07-09T10:46:31.588Z,30.5
2018-07-09T10:47:35.811Z,30.5
2018-07-09T10:48:41.632Z,30.5
2018-07-09T10:49:43.263Z,30.4
2018-07-09T10:50:52.379Z,30.5
2018-07-09T10:51:58.340Z,30.4
2018-07-09T10:53:04.587Z,30.4
2018-07-09T10:54:06.006Z,30.4
2018-07-09T10:55:16.801Z,30.1
2018-07-09T10:57:53.731Z,30.4
2018-07-09T10:58:55.179Z,30.5
2018-07-09T10:59:56.922Z,30.5
2018-07-09T11:00:58.279Z,30.3
2018-07-09T11:02:04.440Z,30.3
2018-07-09T11:03:07.602Z,30
2018-07-09T11:04:12.041Z,30
2018-07-09T11:05:16.080Z,30.1
2018-07-09T11:06:17.599Z,30.3
2018-07-09T11:07:21.963Z,30.3
2018-07-09T11:08:23.430Z,30.3
2018-07-09T11:09:25.085Z,30.4
2018-07-09T11:10:30.580Z,30.4
2018-07-09T11:11:35.131Z,30.4
2018-07-09T11:12:36.762Z,30.3
2018-07-09T11:13:38.173Z,30.3
2018-07-09T11:14:39.556Z,30.2
2018-07-09T11:15:41.083Z,30.1
2018-07-09T11:16:42.634Z,30
2018-07-09T11:17:46.313Z,29.7
2018-07-09T11:18:47.629Z,30
2018-07-09T11:19:50.276Z,30.1
2018-07-09T11:20:51.633Z,30.1
2018-07-09T11:22:06.184Z,30.1
2018-07-09T11:23:07.738Z,30.1
2018-07-09T11:24:09.376Z,30.2
2018-07-09T11:25:13.803Z,30.2
2018-07-09T11:26:27.455Z,30
2018-07-09T11:27:33.629Z,30.1
2018-07-09T11:28:36.911Z,30.1
2018-07-09T11:29:38.262Z,30.2
2018-07-09T11:30:53.132Z,30.3
2018-07-09T11:32:00.255Z,30.3
2018-07-09T11:33:01.741Z,30.1
2018-07-09T11:34:03.307Z,30.1
2018-07-09T11:35:14.873Z,30.1
2018-07-09T11:36:17.758Z,30.1
2018-07-09T11:37:18.993Z,30.2
2018-07-09T11:38:20.438Z,30.1
2018-07-09T11:39:27.472Z,30.2
2018-07-09T11:40:31.313Z,30.2
2018-07-09T11:41:32.652Z,30
2018-07-09T11:42:34.734Z,30
2018-07-09T11:43:36.092Z,29.8
2018-07-09T11:44:37.381Z,29.7
2018-07-09T11:45:40.628Z,29.9
2018-07-09T11:46:47.077Z,29.9
2018-07-09T11:47:53.116Z,30
2018-07-09T11:48:54.404Z,30
2018-07-09T11:49:57.671Z,29.9
2018-07-09T11:50:59.196Z,29.9
2018-07-09T11:52:02.434Z,29.9
2018-07-09T11:53:05.289Z,29.9
2018-07-09T11:54:06.600Z,29.8
2018-07-09T11:55:15.612Z,29.9
2018-07-09T11:56:35.512Z,29.8
2018-07-09T11:57:36.832Z,29.9
2018-07-09T11:58:41.059Z,30
2018-07-09T11:59:50.805Z,29.8
2018-07-09T12:00:56.523Z,29.8
2018-07-09T12:01:58.110Z,29.8
2018-07-09T12:02:59.427Z,29.9
2018-07-09T12:04:02.528Z,29.8
2018-07-09T12:05:06.973Z,29.8
2018-07-09T12:07:47.906Z,30
2018-07-09T12:08:54.726Z,29.8
2018-07-09T12:09:56.196Z,29.6
2018-07-09T12:10:57.758Z,29.6
2018-07-09T12:12:03.547Z,29.7
2018-07-09T12:13:12.130Z,29.6
2018-07-09T12:14:13.777Z,29.6
2018-07-09T12:15:15.068Z,29.6
2018-07-09T12:16:19.202Z,29.5
2018-07-09T12:17:20.561Z,29.5
2018-07-09T12:18:27.823Z,29.3
2018-07-09T12:19:34.125Z,29.4
2018-07-09T12:20:37.244Z,29.4
2018-07-09T12:21:45.183Z,29.4
2018-07-09T12:22:47.610Z,29.4
2018-07-09T12:23:49.004Z,29.3
2018-07-09T12:24:52.694Z,29.5
2018-07-09T12:25:54.104Z,29.5
2018-07-09T12:26:57.995Z,29.4
2018-07-09T12:27:59.516Z,29.4
2018-07-09T12:29:01.518Z,29.5
2018-07-09T12:30:05.337Z,29.5
2018-07-09T12:31:07.183Z,29.5
2018-07-09T12:32:15.961Z,29.5
2018-07-09T12:33:23.970Z,29.4
2018-07-09T12:34:28.408Z,29.5
2018-07-09T12:35:32.686Z,29.4
2018-07-09T12:36:40.614Z,29.4
2018-07-09T12:37:46.758Z,29.4
2018-07-09T12:38:48.081Z,29.4
2018-07-09T12:39:59.465Z,29.4
2018-07-09T12:41:18.891Z,29.2
2018-07-09T12:42:40.602Z,29.2
2018-07-09T12:43:42.142Z,29.5
2018-07-09T12:44:56.040Z,29.5
2018-07-09T12:46:00.581Z,29.4
2018-07-09T12:47:06.179Z,29.5
2018-07-09T12:48:09.602Z,29.4
2018-07-09T12:49:10.914Z,29.4
2018-07-09T12:50:12.485Z,29.5
2018-07-09T12:51:16.228Z,29.6
2018-07-09T12:52:30.606Z,29.4
2018-07-09T12:53:36.561Z,29.4
2018-07-09T12:54:41.084Z,29.4
2018-07-09T12:55:43.263Z,29.5
2018-07-09T12:56:51.871Z,29.4
2018-07-09T12:57:56.470Z,29.5
2018-07-09T12:59:00.739Z,29.4
2018-07-09T13:00:19.382Z,29.1
2018-07-09T13:01:23.102Z,29.1
2018-07-09T13:02:26.204Z,29.1
2018-07-09T13:03:27.467Z,29.1
2018-07-09T13:04:39.274Z,29.2
2018-07-09T13:05:44.610Z,29.1
2018-07-09T13:06:49.717Z,28.9
2018-07-09T13:07:54.207Z,29
2018-07-09T13:08:58.305Z,28.7
2018-07-09T13:10:06.114Z,28.7
2018-07-09T13:11:30.702Z,28.8
2018-07-09T13:13:41.780Z,28.7
2018-07-09T13:14:44.360Z,28.6
2018-07-09T13:15:45.652Z,28.6
2018-07-09T13:18:16.567Z,28.6
2018-07-09T13:19:18.574Z,28.7
2018-07-09T13:20:20.214Z,28.6
2018-07-09T13:21:28.630Z,28.6
2018-07-09T13:22:31.262Z,28.6
2018-07-09T13:23:32.816Z,28.6
2018-07-09T13:24:34.311Z,28.4
2018-07-09T13:25:37.425Z,28.5
2018-07-09T13:26:43.942Z,28.7
2018-07-09T13:27:50.917Z,28.6
2018-07-09T13:28:52.257Z,28.7
2018-07-09T13:29:58.114Z,28.5
2018-07-09T13:31:00.008Z,28.3
2018-07-09T13:32:02.952Z,28.5
2018-07-09T13:33:08.391Z,28.4
2018-07-09T13:34:10.275Z,28.2
2018-07-09T13:35:15.402Z,28.1
2018-07-09T13:36:32.596Z,28.3
2018-07-09T13:37:40.791Z,28.3
2018-07-09T13:38:42.326Z,28.4
2018-07-09T13:39:45.540Z,28.3
2018-07-09T13:41:00.097Z,28.4
2018-07-09T13:42:12.100Z,28.5
2018-07-09T13:43:21.140Z,28.5
2018-07-09T13:44:34.221Z,28.5
2018-07-09T13:45:35.639Z,28.4
2018-07-09T13:46:42.773Z,28.2
2018-07-09T13:47:59.460Z,27.9
2018-07-09T13:49:03.204Z,28.1
2018-07-09T13:52:41.582Z,28.2
2018-07-09T13:53:44.047Z,28.3
2018-07-09T13:54:45.506Z,28.4
2018-07-09T13:55:46.808Z,28.4
2018-07-09T13:56:54.892Z,28.4
2018-07-09T13:57:59.104Z,28
2018-07-09T13:59:00.479Z,28.2
2018-07-09T14:00:05.597Z,28.1
2018-07-09T14:01:15.434Z,28.3
2018-07-09T14:02:20.583Z,28.4
2018-07-09T14:03:23.996Z,28.3
2018-07-09T14:04:42.703Z,28.4
2018-07-09T14:05:51.921Z,28.4
2018-07-09T14:06:58.499Z,28.3
2018-07-09T14:08:01.087Z,28.4
2018-07-09T14:09:04.536Z,28.4
2018-07-09T14:10:12.270Z,28.3
2018-07-09T14:11:22.591Z,28.4
2018-07-09T14:12:31.395Z,28.4
2018-07-09T14:13:35.524Z,28.5
2018-07-09T14:14:36.967Z,28.4
2018-07-09T14:15:44.120Z,28.4
2018-07-09T14:16:53.548Z,28.5
2018-07-09T14:17:56.094Z,28.6
2018-07-09T14:18:57.424Z,28.6
2018-07-09T14:20:00.635Z,28.5
2018-07-09T14:21:03.356Z,28.2
2018-07-09T14:22:08.317Z,28.4